sensor_id;sensor_type;location;lat;lon;timestamp;pressure;altitude;pressure_sealevel;temperature;humidity
76762;BME280;65705;51.032;13.790;2023-07-16T00:00:30;99664.63;;;25.37;53.04
76762;BME280;65705;51.032;13.790;2023-07-16T00:02:57;99665.72;;;25.36;53.12
76762;BME280;65705;51.032;13.790;2023-07-16T00:05:23;99679.94;;;25.31;53.03
76762;BME280;65705;51.032;13.790;2023-07-16T00:07:49;99689.88;;;25.26;52.84
76762;BME280;65705;51.032;13.790;2023-07-16T00:10:15;99702.16;;;25.12;53.19
76762;BME280;65705;51.032;13.790;2023-07-16T00:12:40;99712.22;;;24.79;54.57
76762;BME280;65705;51.032;13.790;2023-07-16T00:15:07;99717.09;;;24.82;54.14
76762;BME280;65705;51.032;13.790;2023-07-16T00:17:34;99731.84;;;24.80;54.32
76762;BME280;65705;51.032;13.790;2023-07-16T00:19:59;99740.13;;;24.73;54.30
76762;BME280;65705;51.032;13.790;2023-07-16T00:22:25;99766.38;;;24.66;54.66
76762;BME280;65705;51.032;13.790;2023-07-16T00:24:51;99828.50;;;24.48;55.60
76762;BME280;65705;51.032;13.790;2023-07-16T00:27:16;99889.41;;;24.48;55.82
76762;BME280;65705;51.032;13.790;2023-07-16T00:29:42;99885.19;;;24.57;55.12
76762;BME280;65705;51.032;13.790;2023-07-16T00:32:08;99868.28;;;24.56;54.67
76762;BME280;65705;51.032;13.790;2023-07-16T00:34:33;99893.59;;;24.65;54.32
76762;BME280;65705;51.032;13.790;2023-07-16T00:37:00;99930.44;;;24.70;54.28
76762;BME280;65705;51.032;13.790;2023-07-16T00:39:28;99935.31;;;24.73;54.43
76762;BME280;65705;51.032;13.790;2023-07-16T00:41:55;99940.44;;;24.79;54.10
76762;BME280;65705;51.032;13.790;2023-07-16T00:44:21;99939.13;;;24.82;54.32
76762;BME280;65705;51.032;13.790;2023-07-16T00:46:47;99946.19;;;24.88;53.93
76762;BME280;65705;51.032;13.790;2023-07-16T00:49:13;99963.91;;;24.89;54.22
76762;BME280;65705;51.032;13.790;2023-07-16T00:51:39;99961.75;;;24.86;54.54
76762;BME280;65705;51.032;13.790;2023-07-16T00:54:05;99958.69;;;24.77;54.64
76762;BME280;65705;51.032;13.790;2023-07-16T00:56:31;99965.16;;;24.81;54.84
76762;BME280;65705;51.032;13.790;2023-07-16T00:58:57;99955.78;;;24.79;55.66
76762;BME280;65705;51.032;13.790;2023-07-16T01:01:23;99969.19;;;24.79;55.40
76762;BME280;65705;51.032;13.790;2023-07-16T01:03:49;99969.75;;;24.81;55.58
76762;BME280;65705;51.032;13.790;2023-07-16T01:09:03;99985.41;;;24.67;56.29
76762;BME280;65705;51.032;13.790;2023-07-16T01:11:32;99982.69;;;24.62;57.00
76762;BME280;65705;51.032;13.790;2023-07-16T01:14:01;99970.00;;;24.58;57.19
76762;BME280;65705;51.032;13.790;2023-07-16T01:16:27;99958.91;;;24.49;57.42
76762;BME280;65705;51.032;13.790;2023-07-16T01:18:53;99962.94;;;24.47;57.90
76762;BME280;65705;51.032;13.790;2023-07-16T01:21:21;99950.88;;;24.49;58.07
76762;BME280;65705;51.032;13.790;2023-07-16T01:29:21;99923.72;;;24.46;57.90
76762;BME280;65705;51.032;13.790;2023-07-16T01:31:53;99916.81;;;24.50;57.61
76762;BME280;65705;51.032;13.790;2023-07-16T01:34:21;99910.16;;;24.57;57.83
76762;BME280;65705;51.032;13.790;2023-07-16T01:36:47;99895.97;;;24.62;57.80
76762;BME280;65705;51.032;13.790;2023-07-16T01:39:15;99883.41;;;24.67;57.20
76762;BME280;65705;51.032;13.790;2023-07-16T01:41:41;99880.47;;;24.69;57.60
76762;BME280;65705;51.032;13.790;2023-07-16T01:44:07;99892.16;;;24.58;57.62
76762;BME280;65705;51.032;13.790;2023-07-16T01:46:33;99887.41;;;24.65;57.37
76762;BME280;65705;51.032;13.790;2023-07-16T01:48:58;99904.03;;;24.62;57.10
76762;BME280;65705;51.032;13.790;2023-07-16T01:51:24;99913.41;;;24.59;57.41
76762;BME280;65705;51.032;13.790;2023-07-16T01:53:51;99940.09;;;24.44;58.11
76762;BME280;65705;51.032;13.790;2023-07-16T01:56:17;99923.13;;;24.39;57.92
76762;BME280;65705;51.032;13.790;2023-07-16T01:58:47;99912.19;;;24.45;58.24
76762;BME280;65705;51.032;13.790;2023-07-16T02:01:13;99907.97;;;24.28;58.74
76762;BME280;65705;51.032;13.790;2023-07-16T02:03:38;99896.53;;;24.11;59.42
76762;BME280;65705;51.032;13.790;2023-07-16T02:06:04;99910.00;;;24.16;59.54
76762;BME280;65705;51.032;13.790;2023-07-16T02:08:31;99903.16;;;24.03;59.84
76762;BME280;65705;51.032;13.790;2023-07-16T02:10:57;99918.19;;;24.04;60.35
76762;BME280;65705;51.032;13.790;2023-07-16T02:13:23;99916.94;;;24.12;60.55
76762;BME280;65705;51.032;13.790;2023-07-16T02:15:49;99929.59;;;24.16;60.61
76762;BME280;65705;51.032;13.790;2023-07-16T02:18:14;99941.31;;;24.10;61.42
76762;BME280;65705;51.032;13.790;2023-07-16T02:20:40;99969.69;;;24.06;61.65
76762;BME280;65705;51.032;13.790;2023-07-16T02:23:06;99985.47;;;24.02;62.31
76762;BME280;65705;51.032;13.790;2023-07-16T02:25:32;99991.19;;;23.89;62.69
76762;BME280;65705;51.032;13.790;2023-07-16T02:27:58;99984.63;;;23.80;63.36
76762;BME280;65705;51.032;13.790;2023-07-16T02:30:24;99985.31;;;23.71;64.13
76762;BME280;65705;51.032;13.790;2023-07-16T02:32:49;99989.78;;;23.65;64.34
76762;BME280;65705;51.032;13.790;2023-07-16T02:35:15;99977.91;;;23.61;65.18
76762;BME280;65705;51.032;13.790;2023-07-16T02:37:41;99996.03;;;23.54;65.25
76762;BME280;65705;51.032;13.790;2023-07-16T02:40:07;99981.66;;;23.60;65.41
76762;BME280;65705;51.032;13.790;2023-07-16T02:42:33;99983.97;;;23.52;65.28
76762;BME280;65705;51.032;13.790;2023-07-16T02:44:59;100013.34;;;23.47;65.90
76762;BME280;65705;51.032;13.790;2023-07-16T02:47:24;100027.38;;;23.54;66.30
76762;BME280;65705;51.032;13.790;2023-07-16T02:49:51;100043.44;;;23.54;66.24
76762;BME280;65705;51.032;13.790;2023-07-16T02:52:17;100057.47;;;23.28;67.14
76762;BME280;65705;51.032;13.790;2023-07-16T02:54:43;100070.88;;;23.28;66.94
76762;BME280;65705;51.032;13.790;2023-07-16T02:57:09;100055.75;;;23.22;67.75
76762;BME280;65705;51.032;13.790;2023-07-16T02:59:35;100073.47;;;22.94;68.79
76762;BME280;65705;51.032;13.790;2023-07-16T03:02:00;100084.25;;;22.83;69.94
76762;BME280;65705;51.032;13.790;2023-07-16T03:04:26;100110.59;;;22.74;70.69
76762;BME280;65705;51.032;13.790;2023-07-16T03:06:52;100128.84;;;22.77;70.82
76762;BME280;65705;51.032;13.790;2023-07-16T03:09:17;100120.81;;;22.77;71.69
76762;BME280;65705;51.032;13.790;2023-07-16T03:11:43;100126.84;;;22.84;72.55
76762;BME280;65705;51.032;13.790;2023-07-16T03:14:09;100101.47;;;22.87;73.60
76762;BME280;65705;51.032;13.790;2023-07-16T03:16:34;100097.16;;;22.86;74.43
76762;BME280;65705;51.032;13.790;2023-07-16T03:19:00;100099.72;;;22.81;73.85
76762;BME280;65705;51.032;13.790;2023-07-16T03:21:26;100110.00;;;22.72;74.16
76762;BME280;65705;51.032;13.790;2023-07-16T03:23:51;100116.06;;;22.68;74.62
76762;BME280;65705;51.032;13.790;2023-07-16T03:26:17;100126.91;;;22.61;75.01
76762;BME280;65705;51.032;13.790;2023-07-16T03:28:43;100127.13;;;22.60;76.33
76762;BME280;65705;51.032;13.790;2023-07-16T03:31:11;100137.03;;;22.59;76.50
76762;BME280;65705;51.032;13.790;2023-07-16T03:33:39;100145.06;;;22.59;75.91
76762;BME280;65705;51.032;13.790;2023-07-16T03:36:06;100142.72;;;22.63;75.99
76762;BME280;65705;51.032;13.790;2023-07-16T03:38:32;100137.00;;;22.71;76.47
76762;BME280;65705;51.032;13.790;2023-07-16T03:40:58;100136.09;;;22.65;77.36
76762;BME280;65705;51.032;13.790;2023-07-16T03:43:24;100125.16;;;22.55;77.07
76762;BME280;65705;51.032;13.790;2023-07-16T03:45:51;100116.91;;;22.45;78.45
76762;BME280;65705;51.032;13.790;2023-07-16T03:48:17;100107.72;;;22.41;77.68
76762;BME280;65705;51.032;13.790;2023-07-16T03:50:43;100083.88;;;22.40;77.65
76762;BME280;65705;51.032;13.790;2023-07-16T03:53:09;100068.75;;;22.34;78.18
76762;BME280;65705;51.032;13.790;2023-07-16T03:55:34;100077.94;;;22.38;77.95
76762;BME280;65705;51.032;13.790;2023-07-16T03:58:01;100085.63;;;22.46;77.41
76762;BME280;65705;51.032;13.790;2023-07-16T04:00:27;100074.69;;;22.47;77.09
76762;BME280;65705;51.032;13.790;2023-07-16T04:02:52;100068.06;;;22.38;77.51
76762;BME280;65705;51.032;13.790;2023-07-16T04:05:18;100058.22;;;22.27;77.65
76762;BME280;65705;51.032;13.790;2023-07-16T04:07:44;100035.66;;;22.23;77.22
76762;BME280;65705;51.032;13.790;2023-07-16T04:10:10;100031.13;;;22.24;76.23
76762;BME280;65705;51.032;13.790;2023-07-16T04:12:35;100034.38;;;22.26;76.97
76762;BME280;65705;51.032;13.790;2023-07-16T04:15:07;100031.22;;;22.29;77.53
76762;BME280;65705;51.032;13.790;2023-07-16T04:17:32;100029.22;;;22.36;78.42
76762;BME280;65705;51.032;13.790;2023-07-16T04:19:58;100028.88;;;22.44;77.25
76762;BME280;65705;51.032;13.790;2023-07-16T04:22:24;100014.19;;;22.46;77.83
76762;BME280;65705;51.032;13.790;2023-07-16T04:24:49;100029.06;;;22.54;77.85
76762;BME280;65705;51.032;13.790;2023-07-16T04:27:15;100013.38;;;22.57;78.30
76762;BME280;65705;51.032;13.790;2023-07-16T04:29:41;100021.63;;;22.56;78.35
76762;BME280;65705;51.032;13.790;2023-07-16T04:32:07;100040.25;;;22.51;78.93
76762;BME280;65705;51.032;13.790;2023-07-16T04:34:32;100044.53;;;22.52;78.22
76762;BME280;65705;51.032;13.790;2023-07-16T04:36:58;100048.38;;;22.56;77.98
76762;BME280;65705;51.032;13.790;2023-07-16T04:39:24;100043.59;;;22.46;78.58
76762;BME280;65705;51.032;13.790;2023-07-16T04:41:50;100043.06;;;22.44;79.72
76762;BME280;65705;51.032;13.790;2023-07-16T04:44:16;100038.75;;;22.43;79.31
76762;BME280;65705;51.032;13.790;2023-07-16T04:46:41;100030.63;;;22.38;79.87
76762;BME280;65705;51.032;13.790;2023-07-16T04:49:07;100023.63;;;22.37;78.76
76762;BME280;65705;51.032;13.790;2023-07-16T04:51:33;100028.88;;;22.44;78.72
76762;BME280;65705;51.032;13.790;2023-07-16T04:53:58;100049.09;;;22.40;79.11
76762;BME280;65705;51.032;13.790;2023-07-16T04:56:24;100063.06;;;22.42;78.63
76762;BME280;65705;51.032;13.790;2023-07-16T04:58:50;100071.66;;;22.44;78.79
76762;BME280;65705;51.032;13.790;2023-07-16T05:01:15;100066.75;;;22.41;79.11
76762;BME280;65705;51.032;13.790;2023-07-16T05:03:41;100056.31;;;22.39;79.99
76762;BME280;65705;51.032;13.790;2023-07-16T05:06:07;100055.28;;;22.40;80.26
76762;BME280;65705;51.032;13.790;2023-07-16T05:08:32;100053.75;;;22.44;80.60
76762;BME280;65705;51.032;13.790;2023-07-16T05:10:58;100035.03;;;22.44;80.95
76762;BME280;65705;51.032;13.790;2023-07-16T05:13:24;100010.22;;;22.49;80.68
76762;BME280;65705;51.032;13.790;2023-07-16T05:15:50;99993.59;;;22.47;80.05
76762;BME280;65705;51.032;13.790;2023-07-16T05:18:16;99981.75;;;22.43;79.42
76762;BME280;65705;51.032;13.790;2023-07-16T05:20:41;99972.47;;;22.34;79.53
76762;BME280;65705;51.032;13.790;2023-07-16T05:23:09;99977.16;;;22.27;79.26
76762;BME280;65705;51.032;13.790;2023-07-16T05:25:35;99975.41;;;22.32;79.23
76762;BME280;65705;51.032;13.790;2023-07-16T05:28:00;99969.81;;;22.34;78.80
76762;BME280;65705;51.032;13.790;2023-07-16T05:30:26;99982.63;;;22.32;78.86
76762;BME280;65705;51.032;13.790;2023-07-16T05:32:52;100003.78;;;22.33;79.29
76762;BME280;65705;51.032;13.790;2023-07-16T05:35:17;100003.97;;;22.43;79.20
76762;BME280;65705;51.032;13.790;2023-07-16T05:37:43;100031.72;;;22.54;79.09
76762;BME280;65705;51.032;13.790;2023-07-16T05:40:09;100042.44;;;22.65;79.12
76762;BME280;65705;51.032;13.790;2023-07-16T05:42:35;100038.84;;;22.60;79.22
76762;BME280;65705;51.032;13.790;2023-07-16T05:45:01;100044.78;;;22.62;79.43
76762;BME280;65705;51.032;13.790;2023-07-16T05:47:26;100048.25;;;22.62;79.94
76762;BME280;65705;51.032;13.790;2023-07-16T05:49:52;100069.28;;;22.70;79.24
76762;BME280;65705;51.032;13.790;2023-07-16T05:52:18;100062.66;;;22.73;77.87
76762;BME280;65705;51.032;13.790;2023-07-16T05:54:44;100067.28;;;22.77;78.19
76762;BME280;65705;51.032;13.790;2023-07-16T05:57:12;100072.81;;;22.87;78.59
76762;BME280;65705;51.032;13.790;2023-07-16T05:59:38;100081.88;;;22.98;78.94
76762;BME280;65705;51.032;13.790;2023-07-16T06:02:04;100095.19;;;23.10;77.19
76762;BME280;65705;51.032;13.790;2023-07-16T06:04:30;100096.38;;;23.02;76.42
76762;BME280;65705;51.032;13.790;2023-07-16T06:06:56;100090.44;;;23.00;75.67
76762;BME280;65705;51.032;13.790;2023-07-16T06:09:22;100103.38;;;23.03;76.40
76762;BME280;65705;51.032;13.790;2023-07-16T06:11:48;100123.72;;;23.04;75.88
76762;BME280;65705;51.032;13.790;2023-07-16T06:14:14;100119.13;;;23.16;74.91
76762;BME280;65705;51.032;13.790;2023-07-16T06:16:40;100123.19;;;23.19;75.12
76762;BME280;65705;51.032;13.790;2023-07-16T06:19:06;100135.50;;;23.31;74.64
76762;BME280;65705;51.032;13.790;2023-07-16T06:21:32;100147.72;;;23.39;73.96
76762;BME280;65705;51.032;13.790;2023-07-16T06:23:57;100149.31;;;23.40;74.08
76762;BME280;65705;51.032;13.790;2023-07-16T06:26:23;100149.41;;;23.45;74.29
76762;BME280;65705;51.032;13.790;2023-07-16T06:28:48;100155.00;;;23.43;73.46
76762;BME280;65705;51.032;13.790;2023-07-16T06:31:17;100164.16;;;23.31;71.71
76762;BME280;65705;51.032;13.790;2023-07-16T06:33:43;100159.78;;;23.41;72.26
76762;BME280;65705;51.032;13.790;2023-07-16T06:36:09;100159.41;;;23.49;71.80
76762;BME280;65705;51.032;13.790;2023-07-16T06:38:35;100164.94;;;23.59;71.54
76762;BME280;65705;51.032;13.790;2023-07-16T06:41:00;100159.34;;;23.61;71.61
76762;BME280;65705;51.032;13.790;2023-07-16T06:43:27;100159.03;;;23.74;71.79
76762;BME280;65705;51.032;13.790;2023-07-16T06:45:52;100163.19;;;23.81;70.96
76762;BME280;65705;51.032;13.790;2023-07-16T06:48:18;100165.31;;;23.96;70.89
76762;BME280;65705;51.032;13.790;2023-07-16T06:50:44;100162.78;;;23.89;68.21
76762;BME280;65705;51.032;13.790;2023-07-16T06:53:10;100162.03;;;23.94;68.86
76762;BME280;65705;51.032;13.790;2023-07-16T06:55:36;100163.13;;;23.93;68.84
76762;BME280;65705;51.032;13.790;2023-07-16T06:58:02;100164.47;;;23.95;69.26
76762;BME280;65705;51.032;13.790;2023-07-16T07:00:28;100171.94;;;23.93;68.95
76762;BME280;65705;51.032;13.790;2023-07-16T07:02:54;100162.63;;;23.79;67.98
76762;BME280;65705;51.032;13.790;2023-07-16T07:05:20;100178.69;;;23.79;68.50
76762;BME280;65705;51.032;13.790;2023-07-16T07:07:46;100157.81;;;23.81;66.58
76762;BME280;65705;51.032;13.790;2023-07-16T07:10:12;100169.13;;;23.83;67.03
76762;BME280;65705;51.032;13.790;2023-07-16T07:12:38;100162.28;;;23.92;67.15
76762;BME280;65705;51.032;13.790;2023-07-16T07:15:08;100150.22;;;24.07;65.39
76762;BME280;65705;51.032;13.790;2023-07-16T07:17:34;100163.13;;;24.10;64.63
76762;BME280;65705;51.032;13.790;2023-07-16T07:20:01;100171.34;;;24.20;64.40
76762;BME280;65705;51.032;13.790;2023-07-16T07:22:27;100172.75;;;24.27;63.69
76762;BME280;65705;51.032;13.790;2023-07-16T07:24:53;100160.75;;;24.30;63.88
76762;BME280;65705;51.032;13.790;2023-07-16T07:27:19;100165.91;;;24.36;61.29
76762;BME280;65705;51.032;13.790;2023-07-16T07:29:44;100170.81;;;24.39;61.45
76762;BME280;65705;51.032;13.790;2023-07-16T07:32:12;100171.38;;;24.41;59.94
76762;BME280;65705;51.032;13.790;2023-07-16T07:34:40;100170.38;;;24.47;58.92
76762;BME280;65705;51.032;13.790;2023-07-16T07:37:06;100173.63;;;24.49;58.32
76762;BME280;65705;51.032;13.790;2023-07-16T07:39:31;100187.09;;;24.54;58.53
76762;BME280;65705;51.032;13.790;2023-07-16T07:41:57;100183.03;;;24.68;57.99
76762;BME280;65705;51.032;13.790;2023-07-16T07:44:23;100186.75;;;24.84;56.23
76762;BME280;65705;51.032;13.790;2023-07-16T07:46:48;100191.97;;;24.95;56.17
76762;BME280;65705;51.032;13.790;2023-07-16T07:49:14;100193.16;;;25.04;56.19
76762;BME280;65705;51.032;13.790;2023-07-16T07:51:40;100187.00;;;25.04;50.67
76762;BME280;65705;51.032;13.790;2023-07-16T07:54:05;100195.69;;;25.11;48.93
76762;BME280;65705;51.032;13.790;2023-07-16T07:56:31;100207.50;;;25.15;48.11
76762;BME280;65705;51.032;13.790;2023-07-16T07:58:57;100218.91;;;25.22;48.34
76762;BME280;65705;51.032;13.790;2023-07-16T08:01:23;100226.31;;;25.37;47.49
76762;BME280;65705;51.032;13.790;2023-07-16T08:03:48;100227.81;;;25.49;47.98
76762;BME280;65705;51.032;13.790;2023-07-16T08:06:14;100223.81;;;25.52;48.00
76762;BME280;65705;51.032;13.790;2023-07-16T08:08:40;100218.22;;;25.58;48.47
76762;BME280;65705;51.032;13.790;2023-07-16T08:11:05;100215.06;;;25.61;48.88
76762;BME280;65705;51.032;13.790;2023-07-16T08:13:31;100222.00;;;25.57;49.18
76762;BME280;65705;51.032;13.790;2023-07-16T08:15:57;100228.28;;;25.68;49.12
76762;BME280;65705;51.032;13.790;2023-07-16T08:18:23;100218.66;;;25.72;49.21
76762;BME280;65705;51.032;13.790;2023-07-16T08:20:48;100225.22;;;25.54;49.55
76762;BME280;65705;51.032;13.790;2023-07-16T08:23:14;100216.63;;;25.57;49.78
76762;BME280;65705;51.032;13.790;2023-07-16T08:25:40;100234.13;;;25.60;49.78
76762;BME280;65705;51.032;13.790;2023-07-16T08:28:05;100239.94;;;25.52;49.42
76762;BME280;65705;51.032;13.790;2023-07-16T08:30:32;100243.63;;;25.46;49.85
76762;BME280;65705;51.032;13.790;2023-07-16T08:32:59;100259.78;;;25.46;49.46
76762;BME280;65705;51.032;13.790;2023-07-16T08:35:24;100253.78;;;25.39;49.51
76762;BME280;65705;51.032;13.790;2023-07-16T08:37:50;100259.91;;;25.56;49.97
76762;BME280;65705;51.032;13.790;2023-07-16T08:40:15;100255.75;;;25.70;49.50
76762;BME280;65705;51.032;13.790;2023-07-16T08:42:44;100253.13;;;25.80;48.53
76762;BME280;65705;51.032;13.790;2023-07-16T08:45:11;100247.06;;;25.89;48.31
76762;BME280;65705;51.032;13.790;2023-07-16T08:47:37;100246.28;;;25.94;48.53
76762;BME280;65705;51.032;13.790;2023-07-16T08:50:03;100236.84;;;25.91;46.76
76762;BME280;65705;51.032;13.790;2023-07-16T08:52:30;100246.63;;;26.02;46.42
76762;BME280;65705;51.032;13.790;2023-07-16T08:54:56;100247.53;;;26.08;46.56
76762;BME280;65705;51.032;13.790;2023-07-16T08:57:22;100245.16;;;26.17;45.68
76762;BME280;65705;51.032;13.790;2023-07-16T08:59:49;100241.84;;;26.41;45.36
76762;BME280;65705;51.032;13.790;2023-07-16T09:02:17;100248.19;;;26.62;45.73
76762;BME280;65705;51.032;13.790;2023-07-16T09:04:44;100262.56;;;26.41;45.46
76762;BME280;65705;51.032;13.790;2023-07-16T09:07:12;100252.09;;;26.08;46.79
76762;BME280;65705;51.032;13.790;2023-07-16T09:09:37;100259.16;;;26.14;46.64
76762;BME280;65705;51.032;13.790;2023-07-16T09:12:03;100258.69;;;26.27;45.72
76762;BME280;65705;51.032;13.790;2023-07-16T09:14:29;100268.44;;;26.33;46.08
76762;BME280;65705;51.032;13.790;2023-07-16T09:16:55;100281.06;;;26.32;45.71
76762;BME280;65705;51.032;13.790;2023-07-16T09:19:21;100275.06;;;26.20;46.30
76762;BME280;65705;51.032;13.790;2023-07-16T09:21:50;100282.84;;;26.17;47.27
76762;BME280;65705;51.032;13.790;2023-07-16T09:24:17;100284.97;;;25.88;47.16
76762;BME280;65705;51.032;13.790;2023-07-16T09:26:52;100296.78;;;25.87;47.33
76762;BME280;65705;51.032;13.790;2023-07-16T09:29:18;100282.84;;;25.90;47.56
76762;BME280;65705;51.032;13.790;2023-07-16T09:32:01;100280.41;;;25.88;47.10
76762;BME280;65705;51.032;13.790;2023-07-16T09:34:31;100277.16;;;25.86;47.23
76762;BME280;65705;51.032;13.790;2023-07-16T09:37:00;100278.63;;;25.72;46.85
76762;BME280;65705;51.032;13.790;2023-07-16T09:39:27;100285.66;;;25.78;47.19
76762;BME280;65705;51.032;13.790;2023-07-16T09:41:53;100278.84;;;25.97;47.04
76762;BME280;65705;51.032;13.790;2023-07-16T09:44:19;100281.69;;;26.08;46.20
76762;BME280;65705;51.032;13.790;2023-07-16T09:46:46;100269.22;;;26.01;44.61
76762;BME280;65705;51.032;13.790;2023-07-16T09:49:12;100268.28;;;26.13;44.57
76762;BME280;65705;51.032;13.790;2023-07-16T09:51:39;100280.03;;;26.33;44.77
76762;BME280;65705;51.032;13.790;2023-07-16T09:54:05;100282.56;;;26.50;43.51
76762;BME280;65705;51.032;13.790;2023-07-16T09:56:38;100262.16;;;26.59;41.59
76762;BME280;65705;51.032;13.790;2023-07-16T09:59:24;100269.97;;;26.60;40.97
76762;BME280;65705;51.032;13.790;2023-07-16T10:01:50;100267.03;;;26.62;39.36
76762;BME280;65705;51.032;13.790;2023-07-16T10:04:19;100274.53;;;26.55;39.83
76762;BME280;65705;51.032;13.790;2023-07-16T10:09:33;100284.66;;;26.74;39.20
76762;BME280;65705;51.032;13.790;2023-07-16T10:12:16;100296.31;;;26.85;39.61
76762;BME280;65705;51.032;13.790;2023-07-16T10:14:44;100295.00;;;26.92;38.92
76762;BME280;65705;51.032;13.790;2023-07-16T10:17:19;100293.41;;;27.01;38.71
76762;BME280;65705;51.032;13.790;2023-07-16T10:22:32;100291.06;;;27.15;38.42
76762;BME280;65705;51.032;13.790;2023-07-16T10:24:59;100291.91;;;27.21;38.17
76762;BME280;65705;51.032;13.790;2023-07-16T10:27:32;100289.97;;;27.16;37.91
76762;BME280;65705;51.032;13.790;2023-07-16T10:29:59;100289.44;;;27.14;38.18
76762;BME280;65705;51.032;13.790;2023-07-16T10:32:27;100294.25;;;27.07;39.23
76762;BME280;65705;51.032;13.790;2023-07-16T10:34:54;100296.94;;;27.02;39.24
76762;BME280;65705;51.032;13.790;2023-07-16T10:37:20;100299.06;;;27.00;38.77
76762;BME280;65705;51.032;13.790;2023-07-16T10:39:50;100314.47;;;27.04;38.73
76762;BME280;65705;51.032;13.790;2023-07-16T10:42:16;100301.03;;;27.15;38.74
76762;BME280;65705;51.032;13.790;2023-07-16T10:44:43;100301.88;;;27.20;38.43
76762;BME280;65705;51.032;13.790;2023-07-16T10:47:10;100295.94;;;27.23;38.34
76762;BME280;65705;51.032;13.790;2023-07-16T10:49:44;100313.28;;;27.32;38.51
76762;BME280;65705;51.032;13.790;2023-07-16T10:52:10;100301.69;;;27.32;38.50
76762;BME280;65705;51.032;13.790;2023-07-16T10:54:35;100304.63;;;27.30;37.33
76762;BME280;65705;51.032;13.790;2023-07-16T10:57:03;100305.44;;;27.31;37.51
76762;BME280;65705;51.032;13.790;2023-07-16T10:59:29;100298.88;;;27.17;37.35
76762;BME280;65705;51.032;13.790;2023-07-16T11:01:55;100300.19;;;27.04;37.14
76762;BME280;65705;51.032;13.790;2023-07-16T11:04:21;100294.47;;;26.95;37.11
76762;BME280;65705;51.032;13.790;2023-07-16T11:06:46;100302.78;;;26.89;37.73
76762;BME280;65705;51.032;13.790;2023-07-16T11:09:15;100294.22;;;27.02;37.76
76762;BME280;65705;51.032;13.790;2023-07-16T11:11:41;100299.72;;;27.17;37.99
76762;BME280;65705;51.032;13.790;2023-07-16T11:14:07;100301.88;;;27.25;37.24
76762;BME280;65705;51.032;13.790;2023-07-16T11:16:37;100297.38;;;27.31;37.21
76762;BME280;65705;51.032;13.790;2023-07-16T11:19:07;100312.50;;;27.42;37.31
76762;BME280;65705;51.032;13.790;2023-07-16T11:21:33;100299.31;;;27.50;37.79
76762;BME280;65705;51.032;13.790;2023-07-16T11:24:14;100295.88;;;27.65;37.25
76762;BME280;65705;51.032;13.790;2023-07-16T11:26:51;100302.09;;;27.75;37.45
76762;BME280;65705;51.032;13.790;2023-07-16T11:29:16;100307.75;;;27.79;37.15
76762;BME280;65705;51.032;13.790;2023-07-16T11:31:42;100305.06;;;27.79;37.07
76762;BME280;65705;51.032;13.790;2023-07-16T11:34:12;100291.31;;;27.75;37.28
76762;BME280;65705;51.032;13.790;2023-07-16T11:36:38;100291.38;;;27.29;37.32
76762;BME280;65705;51.032;13.790;2023-07-16T11:39:04;100301.09;;;27.25;37.82
76762;BME280;65705;51.032;13.790;2023-07-16T11:41:30;100300.53;;;27.18;38.21
76762;BME280;65705;51.032;13.790;2023-07-16T11:44:02;100291.09;;;27.25;38.14
76762;BME280;65705;51.032;13.790;2023-07-16T11:46:32;100282.06;;;27.46;37.58
76762;BME280;65705;51.032;13.790;2023-07-16T11:49:01;100269.44;;;27.67;37.64
76762;BME280;65705;51.032;13.790;2023-07-16T11:51:26;100283.53;;;27.89;37.57
76762;BME280;65705;51.032;13.790;2023-07-16T11:53:55;100276.28;;;28.04;37.04
76762;BME280;65705;51.032;13.790;2023-07-16T11:56:20;100271.69;;;28.25;37.06
76762;BME280;65705;51.032;13.790;2023-07-16T11:58:48;100265.47;;;28.25;36.45
76762;BME280;65705;51.032;13.790;2023-07-16T12:01:14;100248.19;;;28.26;36.30
76762;BME280;65705;51.032;13.790;2023-07-16T12:03:40;100255.22;;;28.37;36.11
76762;BME280;65705;51.032;13.790;2023-07-16T12:06:06;100250.88;;;28.41;35.32
76762;BME280;65705;51.032;13.790;2023-07-16T12:08:32;100255.47;;;28.40;35.58
76762;BME280;65705;51.032;13.790;2023-07-16T12:10:58;100252.22;;;28.43;35.59
76762;BME280;65705;51.032;13.790;2023-07-16T12:13:24;100262.22;;;28.43;35.39
76762;BME280;65705;51.032;13.790;2023-07-16T12:15:49;100262.50;;;28.46;35.02
76762;BME280;65705;51.032;13.790;2023-07-16T12:18:15;100258.72;;;28.42;35.35
76762;BME280;65705;51.032;13.790;2023-07-16T12:20:41;100259.28;;;28.39;35.51
76762;BME280;65705;51.032;13.790;2023-07-16T12:23:07;100264.66;;;28.34;35.33
76762;BME280;65705;51.032;13.790;2023-07-16T12:25:33;100256.56;;;28.39;35.94
76762;BME280;65705;51.032;13.790;2023-07-16T12:28:00;100254.41;;;28.41;36.04
76762;BME280;65705;51.032;13.790;2023-07-16T12:30:27;100259.53;;;28.43;36.44
76762;BME280;65705;51.032;13.790;2023-07-16T12:32:53;100262.22;;;28.48;36.27
76762;BME280;65705;51.032;13.790;2023-07-16T12:35:18;100261.94;;;28.59;35.69
76762;BME280;65705;51.032;13.790;2023-07-16T12:37:44;100262.25;;;28.63;36.54
76762;BME280;65705;51.032;13.790;2023-07-16T12:40:10;100254.66;;;28.60;35.78
76762;BME280;65705;51.032;13.790;2023-07-16T12:42:37;100249.78;;;28.67;36.23
76762;BME280;65705;51.032;13.790;2023-07-16T12:45:02;100240.06;;;28.71;35.99
76762;BME280;65705;51.032;13.790;2023-07-16T12:47:29;100246.25;;;28.76;35.74
76762;BME280;65705;51.032;13.790;2023-07-16T12:49:55;100248.94;;;28.81;35.75
76762;BME280;65705;51.032;13.790;2023-07-16T12:52:20;100253.03;;;28.64;35.42